sensor_id;sensor_type;location;lat;lon;timestamp;pressure;altitude;pressure_sealevel;temperature;humidity
43217;BME280;60511;42.686;23.300;2023-02-04T00:01:53;94475.97;;;21.58;25.60
43217;BME280;60511;42.686;23.300;2023-02-04T00:03:54;94372.34;;;20.95;25.53
43217;BME280;60511;42.686;23.300;2023-02-04T00:05:54;94385.31;;;21.05;25.62
43217;BME280;60511;42.686;23.300;2023-02-04T00:07:54;94358.69;;;20.88;25.56
43217;BME280;60511;42.686;23.300;2023-02-04T00:09:55;94374.81;;;21.00;25.53
43217;BME280;60511;42.686;23.300;2023-02-04T00:11:55;94455.81;;;21.52;25.53
43217;BME280;60511;42.686;23.300;2023-02-04T00:13:55;94387.31;;;21.09;25.42
43217;BME280;60511;42.686;23.300;2023-02-04T00:15:56;94418.81;;;21.36;25.55
43217;BME280;60511;42.686;23.300;2023-02-04T00:17:56;94351.94;;;20.94;25.33
43217;BME280;60511;42.686;23.300;2023-02-04T00:19:57;94449.19;;;21.49;25.71
43217;BME280;60511;42.686;23.300;2023-02-04T00:21:57;94437.28;;;21.50;25.47
43217;BME280;60511;42.686;23.300;2023-02-04T00:23:57;94346.69;;;20.85;25.79
43217;BME280;60511;42.686;23.300;2023-02-04T00:25:58;94288.84;;;20.51;25.62
43217;BME280;60511;42.686;23.300;2023-02-04T00:27:58;94395.19;;;21.30;25.35
43217;BME280;60511;42.686;23.300;2023-02-04T00:29:58;94446.69;;;21.56;25.50
43217;BME280;60511;42.686;23.300;2023-02-04T00:31:59;94438.94;;;21.55;25.47
43217;BME280;60511;42.686;23.300;2023-02-04T00:33:59;94379.53;;;21.19;25.89
43217;BME280;60511;42.686;23.300;2023-02-04T00:36:00;94416.09;;;21.49;25.53
43217;BME280;60511;42.686;23.300;2023-02-04T00:38:00;94384.09;;;21.31;25.46
43217;BME280;60511;42.686;23.300;2023-02-04T00:40:00;94410.53;;;21.57;25.61
43217;BME280;60511;42.686;23.300;2023-02-04T00:42:01;94408.59;;;21.42;25.64
43217;BME280;60511;42.686;23.300;2023-02-04T00:44:01;94412.63;;;21.48;25.37
43217;BME280;60511;42.686;23.300;2023-02-04T00:46:02;94362.31;;;21.08;25.57
43217;BME280;60511;42.686;23.300;2023-02-04T00:48:02;94415.47;;;21.55;25.47
43217;BME280;60511;42.686;23.300;2023-02-04T00:50:03;94328.34;;;21.03;25.43
43217;BME280;60511;42.686;23.300;2023-02-04T00:52:04;94430.97;;;21.58;25.36
43217;BME280;60511;42.686;23.300;2023-02-04T00:54:06;94390.56;;;21.30;25.46
43217;BME280;60511;42.686;23.300;2023-02-04T00:56:06;94421.25;;;21.54;25.59
43217;BME280;60511;42.686;23.300;2023-02-04T00:58:07;94225.97;;;20.40;25.86
43217;BME280;60511;42.686;23.300;2023-02-04T01:00:08;94364.44;;;21.31;25.56
43217;BME280;60511;42.686;23.300;2023-02-04T01:02:09;94395.09;;;21.54;25.72
43217;BME280;60511;42.686;23.300;2023-02-04T01:04:09;94401.25;;;21.55;25.63
43217;BME280;60511;42.686;23.300;2023-02-04T01:06:10;94365.41;;;21.38;25.65
43217;BME280;60511;42.686;23.300;2023-02-04T01:08:11;94356.34;;;21.31;25.56
43217;BME280;60511;42.686;23.300;2023-02-04T01:10:11;94342.91;;;21.31;25.77
43217;BME280;60511;42.686;23.300;2023-02-04T01:12:12;94343.50;;;21.24;25.86
43217;BME280;60511;42.686;23.300;2023-02-04T01:14:12;94333.88;;;21.23;25.76
43217;BME280;60511;42.686;23.300;2023-02-04T01:16:13;94379.25;;;21.53;25.84
43217;BME280;60511;42.686;23.300;2023-02-04T01:18:13;94254.88;;;20.71;25.92
43217;BME280;60511;42.686;23.300;2023-02-04T01:20:14;94266.25;;;20.80;25.95
43217;BME280;60511;42.686;23.300;2023-02-04T01:22:14;94344.47;;;21.32;25.48
43217;BME280;60511;42.686;23.300;2023-02-04T01:24:14;94341.00;;;21.31;25.73
43217;BME280;60511;42.686;23.300;2023-02-04T01:26:16;94317.09;;;21.14;25.73
43217;BME280;60511;42.686;23.300;2023-02-04T01:28:17;94356.50;;;21.50;25.57
43217;BME280;60511;42.686;23.300;2023-02-04T01:30:17;94372.66;;;21.50;25.49
43217;BME280;60511;42.686;23.300;2023-02-04T01:32:18;94305.78;;;21.08;26.10
43217;BME280;60511;42.686;23.300;2023-02-04T01:34:18;94323.78;;;21.20;25.59
43217;BME280;60511;42.686;23.300;2023-02-04T01:36:18;94318.84;;;21.22;25.76
43217;BME280;60511;42.686;23.300;2023-02-04T01:38:20;94340.75;;;21.36;25.66
43217;BME280;60511;42.686;23.300;2023-02-04T01:40:21;94366.41;;;21.46;25.99
43217;BME280;60511;42.686;23.300;2023-02-04T01:42:21;94293.06;;;21.21;25.78
43217;BME280;60511;42.686;23.300;2023-02-04T01:44:22;94251.13;;;20.76;25.89
43217;BME280;60511;42.686;23.300;2023-02-04T01:46:22;94288.22;;;20.98;25.89
43217;BME280;60511;42.686;23.300;2023-02-04T01:48:24;94239.59;;;20.75;25.94
43217;BME280;60511;42.686;23.300;2023-02-04T01:50:25;94280.44;;;20.93;25.69
43217;BME280;60511;42.686;23.300;2023-02-04T01:52:34;94286.44;;;21.02;25.64
43217;BME280;60511;42.686;23.300;2023-02-04T01:54:36;94310.59;;;21.15;25.57
43217;BME280;60511;42.686;23.300;2023-02-04T01:56:37;94237.25;;;20.74;25.62
43217;BME280;60511;42.686;23.300;2023-02-04T01:58:39;94245.31;;;20.74;25.62
43217;BME280;60511;42.686;23.300;2023-02-04T02:00:40;94150.22;;;20.22;25.63
43217;BME280;60511;42.686;23.300;2023-02-04T02:02:49;94322.66;;;21.37;25.67
43217;BME280;60511;42.686;23.300;2023-02-04T02:04:49;94275.69;;;21.02;25.53
43217;BME280;60511;42.686;23.300;2023-02-04T02:06:57;94296.72;;;21.13;25.48
43217;BME280;60511;42.686;23.300;2023-02-04T02:08:58;94294.53;;;21.18;25.60
43217;BME280;60511;42.686;23.300;2023-02-04T02:10:59;94221.47;;;20.72;25.58
43217;BME280;60511;42.686;23.300;2023-02-04T02:12:59;94313.47;;;21.38;25.54
43217;BME280;60511;42.686;23.300;2023-02-04T02:15:00;94284.69;;;21.10;25.62
43217;BME280;60511;42.686;23.300;2023-02-04T02:17:01;94309.91;;;21.34;25.40
43217;BME280;60511;42.686;23.300;2023-02-04T02:19:01;94281.78;;;21.15;25.34
43217;BME280;60511;42.686;23.300;2023-02-04T02:21:05;94281.34;;;21.13;25.77
43217;BME280;60511;42.686;23.300;2023-02-04T02:25:47;94290.09;;;21.26;25.62
43217;BME280;60511;42.686;23.300;2023-02-04T02:27:48;94267.16;;;21.16;25.69
43217;BME280;60511;42.686;23.300;2023-02-04T02:29:48;94295.75;;;21.37;25.45
43217;BME280;60511;42.686;23.300;2023-02-04T02:31:50;94240.19;;;21.13;25.65
43217;BME280;60511;42.686;23.300;2023-02-04T02:33:51;94190.59;;;20.82;25.37
43217;BME280;60511;42.686;23.300;2023-02-04T02:35:51;94209.00;;;20.96;25.73
43217;BME280;60511;42.686;23.300;2023-02-04T02:37:51;94253.91;;;21.23;25.51
43217;BME280;60511;42.686;23.300;2023-02-04T02:39:52;94219.97;;;21.03;25.71
43217;BME280;60511;42.686;23.300;2023-02-04T02:41:54;94161.00;;;20.82;25.67
43217;BME280;60511;42.686;23.300;2023-02-04T02:43:55;94258.00;;;21.33;25.88
43217;BME280;60511;42.686;23.300;2023-02-04T02:45:58;94236.03;;;21.31;25.48
43217;BME280;60511;42.686;23.300;2023-02-04T02:48:00;94213.63;;;21.11;25.58
43217;BME280;60511;42.686;23.300;2023-02-04T02:50:04;94249.13;;;21.33;25.47
43217;BME280;60511;42.686;23.300;2023-02-04T02:52:04;94184.69;;;20.92;25.73
43217;BME280;60511;42.686;23.300;2023-02-04T02:54:05;94149.31;;;20.74;25.63
43217;BME280;60511;42.686;23.300;2023-02-04T02:56:06;94109.09;;;20.50;25.69
43217;BME280;60511;42.686;23.300;2023-02-04T02:58:22;94131.34;;;20.62;25.82
43217;BME280;60511;42.686;23.300;2023-02-04T03:00:28;94199.66;;;21.21;25.56
43217;BME280;60511;42.686;23.300;2023-02-04T03:02:28;94148.50;;;20.74;25.66
43217;BME280;60511;42.686;23.300;2023-02-04T03:04:31;94159.88;;;20.83;25.75
43217;BME280;60511;42.686;23.300;2023-02-04T03:06:32;94195.91;;;21.10;25.84
43217;BME280;60511;42.686;23.300;2023-02-04T03:08:34;94207.72;;;21.21;25.73
43217;BME280;60511;42.686;23.300;2023-02-04T03:10:35;94228.97;;;21.26;25.54
43217;BME280;60511;42.686;23.300;2023-02-04T03:12:36;94221.59;;;21.23;25.75
43217;BME280;60511;42.686;23.300;2023-02-04T03:14:37;94210.50;;;21.09;25.58
43217;BME280;60511;42.686;23.300;2023-02-04T03:16:38;94221.00;;;21.14;25.41
43217;BME280;60511;42.686;23.300;2023-02-04T03:18:39;94184.69;;;20.92;25.63
43217;BME280;60511;42.686;23.300;2023-02-04T03:20:40;94192.94;;;20.99;25.74
43217;BME280;60511;42.686;23.300;2023-02-04T03:22:41;94149.53;;;20.69;25.71
43217;BME280;60511;42.686;23.300;2023-02-04T03:24:41;94074.81;;;20.31;25.85
43217;BME280;60511;42.686;23.300;2023-02-04T03:26:42;94131.50;;;20.70;25.84
43217;BME280;60511;42.686;23.300;2023-02-04T03:28:42;94170.13;;;20.93;25.54
43217;BME280;60511;42.686;23.300;2023-02-04T03:30:43;94192.94;;;20.99;25.66
43217;BME280;60511;42.686;23.300;2023-02-04T03:32:43;94179.50;;;20.99;25.66
43217;BME280;60511;42.686;23.300;2023-02-04T03:34:43;94218.28;;;21.14;25.85
43217;BME280;60511;42.686;23.300;2023-02-04T03:36:44;94177.25;;;21.01;25.81
43217;BME280;60511;42.686;23.300;2023-02-04T03:38:44;94221.69;;;21.11;25.42
43217;BME280;60511;42.686;23.300;2023-02-04T03:40:45;94087.47;;;20.30;25.66
43217;BME280;60511;42.686;23.300;2023-02-04T03:42:45;94200.59;;;21.13;25.93
43217;BME280;60511;42.686;23.300;2023-02-04T03:44:45;94162.66;;;20.86;25.68
43217;BME280;60511;42.686;23.300;2023-02-04T03:46:46;94222.81;;;21.26;25.80
43217;BME280;60511;42.686;23.300;2023-02-04T03:48:46;94114.06;;;20.63;25.72
43217;BME280;60511;42.686;23.300;2023-02-04T03:50:47;94201.03;;;21.15;25.68
43217;BME280;60511;42.686;23.300;2023-02-04T03:52:47;94124.13;;;20.66;25.82
43217;BME280;60511;42.686;23.300;2023-02-04T03:54:49;94074.13;;;20.34;25.82
43217;BME280;60511;42.686;23.300;2023-02-04T03:56:49;94125.34;;;20.85;25.55
43217;BME280;60511;42.686;23.300;2023-02-04T03:58:49;94090.66;;;20.64;25.77
43217;BME280;60511;42.686;23.300;2023-02-04T04:00:50;94147.31;;;21.03;25.56
43217;BME280;60511;42.686;23.300;2023-02-04T04:02:51;94147.31;;;21.03;25.63
43217;BME280;60511;42.686;23.300;2023-02-04T04:04:51;94129.88;;;20.97;25.66
43217;BME280;60511;42.686;23.300;2023-02-04T04:06:52;94179.59;;;21.19;25.73
43217;BME280;60511;42.686;23.300;2023-02-04T04:08:52;94111.47;;;20.83;25.87
43217;BME280;60511;42.686;23.300;2023-02-04T04:10:52;94148.06;;;21.19;25.80
43217;BME280;60511;42.686;23.300;2023-02-04T04:12:53;94165.84;;;21.24;25.48
43217;BME280;60511;42.686;23.300;2023-02-04T04:14:53;94133.94;;;21.06;25.65
43217;BME280;60511;42.686;23.300;2023-02-04T04:16:53;94106.88;;;20.83;25.91
43217;BME280;60511;42.686;23.300;2023-02-04T04:18:54;94138.84;;;21.20;25.74
43217;BME280;60511;42.686;23.300;2023-02-04T04:20:55;94001.81;;;20.28;25.82
43217;BME280;60511;42.686;23.300;2023-02-04T04:22:55;94074.97;;;20.66;25.72
43217;BME280;60511;42.686;23.300;2023-02-04T04:24:55;94108.34;;;20.97;25.81
43217;BME280;60511;42.686;23.300;2023-02-04T04:26:56;94125.94;;;20.94;25.60
43217;BME280;60511;42.686;23.300;2023-02-04T04:28:56;94087.78;;;20.73;25.79
43217;BME280;60511;42.686;23.300;2023-02-04T04:30:57;94121.38;;;20.95;25.87
43217;BME280;60511;42.686;23.300;2023-02-04T04:32:57;94106.97;;;20.71;25.62
43217;BME280;60511;42.686;23.300;2023-02-04T04:34:57;94067.47;;;20.59;25.80
43217;BME280;60511;42.686;23.300;2023-02-04T04:36:58;94147.56;;;20.98;25.57
43217;BME280;60511;42.686;23.300;2023-02-04T04:38:58;94120.22;;;20.80;25.73
43217;BME280;60511;42.686;23.300;2023-02-04T04:40:58;94173.59;;;21.10;25.81
43217;BME280;60511;42.686;23.300;2023-02-04T04:42:59;94155.19;;;21.12;26.16
43217;BME280;60511;42.686;23.300;2023-02-04T04:45:00;94127.94;;;20.81;25.76
43217;BME280;60511;42.686;23.300;2023-02-04T04:47:00;94172.47;;;21.11;25.53
43217;BME280;60511;42.686;23.300;2023-02-04T04:49:02;94174.38;;;21.10;25.69
43217;BME280;60511;42.686;23.300;2023-02-04T04:51:03;94136.22;;;20.89;25.89
43217;BME280;60511;42.686;23.300;2023-02-04T04:53:04;94113.47;;;20.70;25.80
43217;BME280;60511;42.686;23.300;2023-02-04T04:55:05;94139.16;;;20.99;25.91
43217;BME280;60511;42.686;23.300;2023-02-04T04:57:07;94127.41;;;20.76;25.71
43217;BME280;60511;42.686;23.300;2023-02-04T04:59:07;94179.41;;;21.12;26.03
43217;BME280;60511;42.686;23.300;2023-02-04T05:01:09;94017.25;;;20.16;26.01
43217;BME280;60511;42.686;23.300;2023-02-04T05:03:09;93962.53;;;19.76;26.10
43217;BME280;60511;42.686;23.300;2023-02-04T05:05:10;94178.44;;;21.20;25.70
43217;BME280;60511;42.686;23.300;2023-02-04T05:07:10;94175.75;;;21.20;25.98
43217;BME280;60511;42.686;23.300;2023-02-04T05:09:11;94080.94;;;20.59;25.92
43217;BME280;60511;42.686;23.300;2023-02-04T05:11:11;94184.44;;;21.13;25.73
43217;BME280;60511;42.686;23.300;2023-02-04T05:13:11;94163.03;;;21.01;25.93
43217;BME280;60511;42.686;23.300;2023-02-04T05:15:12;94101.53;;;20.55;26.01
43217;BME280;60511;42.686;23.300;2023-02-04T05:17:12;94205.38;;;21.20;25.89
43217;BME280;60511;42.686;23.300;2023-02-04T05:19:13;93981.44;;;19.67;26.08
43217;BME280;60511;42.686;23.300;2023-02-04T05:21:13;94161.28;;;20.93;25.84
43217;BME280;60511;42.686;23.300;2023-02-04T05:23:14;94178.19;;;20.93;25.84
43217;BME280;60511;42.686;23.300;2023-02-04T05:25:14;94178.63;;;20.95;25.88
43217;BME280;60511;42.686;23.300;2023-02-04T05:27:16;94139.84;;;20.64;25.87
43217;BME280;60511;42.686;23.300;2023-02-04T05:29:16;94113.50;;;20.42;25.88
43217;BME280;60511;42.686;23.300;2023-02-04T05:31:16;94111.50;;;20.39;25.80
43217;BME280;60511;42.686;23.300;2023-02-04T05:33:17;94188.69;;;20.82;25.84
43217;BME280;60511;42.686;23.300;2023-02-04T05:35:17;94211.59;;;20.92;25.94
43217;BME280;60511;42.686;23.300;2023-02-04T05:37:18;94178.53;;;20.76;25.88
43217;BME280;60511;42.686;23.300;2023-02-04T05:39:20;94232.56;;;21.15;25.83
43217;BME280;60511;42.686;23.300;2023-02-04T05:41:20;94216.09;;;20.88;25.71
43217;BME280;60511;42.686;23.300;2023-02-04T05:43:20;94221.78;;;20.99;26.13
43217;BME280;60511;42.686;23.300;2023-02-04T05:45:21;94220.19;;;20.98;25.96
43217;BME280;60511;42.686;23.300;2023-02-04T05:47:21;94149.50;;;20.53;26.16
43217;BME280;60511;42.686;23.300;2023-02-04T05:49:22;94259.81;;;21.13;26.23
43217;BME280;60511;42.686;23.300;2023-02-04T05:51:23;94138.47;;;20.42;25.95
43217;BME280;60511;42.686;23.300;2023-02-04T05:53:24;94182.78;;;20.77;26.17
43217;BME280;60511;42.686;23.300;2023-02-04T05:55:24;94181.75;;;20.81;25.86
43217;BME280;60511;42.686;23.300;2023-02-04T05:57:25;94217.44;;;21.10;26.04
43217;BME280;60511;42.686;23.300;2023-02-04T05:59:25;94129.00;;;20.61;26.09
43217;BME280;60511;42.686;23.300;2023-02-04T06:01:25;94186.81;;;20.99;25.81
43217;BME280;60511;42.686;23.300;2023-02-04T06:03:26;94056.34;;;20.13;26.09
43217;BME280;60511;42.686;23.300;2023-02-04T06:05:27;94172.28;;;20.87;26.11
43217;BME280;60511;42.686;23.300;2023-02-04T06:07:27;93934.94;;;19.19;26.04
43217;BME280;60511;42.686;23.300;2023-02-04T06:09:27;94129.31;;;20.59;26.09
43217;BME280;60511;42.686;23.300;2023-02-04T06:11:28;94147.63;;;20.70;26.01
43217;BME280;60511;42.686;23.300;2023-02-04T06:13:28;94149.44;;;20.65;26.24
43217;BME280;60511;42.686;23.300;2023-02-04T06:15:29;94201.28;;;20.94;26.08
43217;BME280;60511;42.686;23.300;2023-02-04T06:17:29;94114.63;;;20.41;25.90
43217;BME280;60511;42.686;23.300;2023-02-04T06:19:29;94105.53;;;20.30;26.17
43217;BME280;60511;42.686;23.300;2023-02-04T06:21:30;94237.56;;;21.16;26.07
43217;BME280;60511;42.686;23.300;2023-02-04T06:23:31;94223.84;;;21.05;26.18
43217;BME280;60511;42.686;23.300;2023-02-04T06:25:34;94190.59;;;20.82;25.86
43217;BME280;60511;42.686;23.300;2023-02-04T06:27:35;94236.03;;;21.15;26.18
43217;BME280;60511;42.686;23.300;2023-02-04T06:29:35;94152.63;;;20.55;26.13
43217;BME280;60511;42.686;23.300;2023-02-04T06:31:36;94221.94;;;21.06;26.23
43217;BME280;60511;42.686;23.300;2023-02-04T06:33:38;94178.03;;;20.70;26.09
43217;BME280;60511;42.686;23.300;2023-02-04T06:35:38;94221.34;;;20.97;26.15
43217;BME280;60511;42.686;23.300;2023-02-04T06:37:38;94200.34;;;20.86;26.21
43217;BME280;60511;42.686;23.300;2023-02-04T06:39:39;94254.94;;;21.19;26.36
43217;BME280;60511;42.686;23.300;2023-02-04T06:41:39;94252.41;;;21.10;26.13
43217;BME280;60511;42.686;23.300;2023-02-04T06:43:39;94223.59;;;20.95;26.04
43217;BME280;60511;42.686;23.300;2023-02-04T06:45:40;94162.25;;;20.56;26.25
43217;BME280;60511;42.686;23.300;2023-02-04T06:47:41;94188.84;;;20.74;26.22
43217;BME280;60511;42.686;23.300;2023-02-04T06:49:41;94251.41;;;21.15;25.96
43217;BME280;60511;42.686;23.300;2023-02-04T06:51:41;94216.19;;;20.92;26.09
43217;BME280;60511;42.686;23.300;2023-02-04T06:53:42;94230.53;;;20.96;26.16
43217;BME280;60511;42.686;23.300;2023-02-04T06:55:44;94235.06;;;21.07;26.13
43217;BME280;60511;42.686;23.300;2023-02-04T06:57:45;94146.75;;;20.50;25.84
43217;BME280;60511;42.686;23.300;2023-02-04T06:59:45;94240.00;;;21.05;26.05
43217;BME280;60511;42.686;23.300;2023-02-04T07:01:46;94130.84;;;20.44;26.25
43217;BME280;60511;42.686;23.300;2023-02-04T07:03:46;94139.19;;;20.55;26.11
43217;BME280;60511;42.686;23.300;2023-02-04T07:05:47;94153.63;;;20.63;26.39
43217;BME280;60511;42.686;23.300;2023-02-04T07:07:47;94221.34;;;21.13;26.26
43217;BME280;60511;42.686;23.300;2023-02-04T07:09:47;94240.97;;;21.29;26.48
43217;BME280;60511;42.686;23.300;2023-02-04T07:11:48;94097.03;;;20.43;26.71
43217;BME280;60511;42.686;23.300;2023-02-04T07:13:48;94147.22;;;20.83;27.04
43217;BME280;60511;42.686;23.300;2023-02-04T07:15:49;94187.31;;;21.04;26.57
43217;BME280;60511;42.686;23.300;2023-02-04T07:17:50;94221.94;;;21.22;26.76
43217;BME280;60511;42.686;23.300;2023-02-04T07:19:50;94232.19;;;21.32;26.78
43217;BME280;60511;42.686;23.300;2023-02-04T07:21:51;94213.09;;;21.21;26.63
43217;BME280;60511;42.686;23.300;2023-02-04T07:23:55;94209.69;;;21.24;26.63
43217;BME280;60511;42.686;23.300;2023-02-04T07:25:56;94222.56;;;21.31;26.88
43217;BME280;60511;42.686;23.300;2023-02-04T07:27:58;94055.50;;;20.25;26.64
43217;BME280;60511;42.686;23.300;2023-02-04T07:30:00;94174.22;;;21.03;26.78
43217;BME280;60511;42.686;23.300;2023-02-04T07:32:01;94190.69;;;21.33;26.75
43217;BME280;60511;42.686;23.300;2023-02-04T07:34:01;94142.50;;;20.96;26.63
43217;BME280;60511;42.686;23.300;2023-02-04T07:36:02;94208.16;;;21.39;26.21
43217;BME280;60511;42.686;23.300;2023-02-04T07:38:03;94184.19;;;21.18;26.36
43217;BME280;60511;42.686;23.300;2023-02-04T07:40:04;94184.59;;;21.20;26.48
43217;BME280;60511;42.686;23.300;2023-02-04T07:42:04;94127.94;;;20.81;26.61
43217;BME280;60511;42.686;23.300;2023-02-04T07:44:04;94137.84;;;20.93;26.43
43217;BME280;60511;42.686;23.300;2023-02-04T07:46:06;94101.31;;;20.60;26.72
43217;BME280;60511;42.686;23.300;2023-02-04T07:48:06;94159.28;;;21.05;26.40
43217;BME280;60511;42.686;23.300;2023-02-04T07:50:07;94193.63;;;21.28;26.72
43217;BME280;60511;42.686;23.300;2023-02-04T07:52:07;94131.16;;;20.87;26.89
43217;BME280;60511;42.686;23.300;2023-02-04T07:54:08;94144.88;;;20.98;26.83
43217;BME280;60511;42.686;23.300;2023-02-04T07:56:09;94209.25;;;21.38;26.78
43217;BME280;60511;42.686;23.300;2023-02-04T07:58:09;94169.34;;;21.09;26.93
43217;BME280;60511;42.686;23.300;2023-02-04T08:00:10;93997.91;;;19.94;27.07
43217;BME280;60511;42.686;23.300;2023-02-04T08:02:13;94183.50;;;21.21;27.55
43217;BME280;60511;42.686;23.300;2023-02-04T08:04:13;94187.50;;;21.12;27.76
43217;BME280;60511;42.686;23.300;2023-02-04T08:06:13;94222.19;;;21.33;27.22
43217;BME280;60511;42.686;23.300;2023-02-04T08:08:14;94124.31;;;20.74;28.11
43217;BME280;60511;42.686;23.300;2023-02-04T08:10:14;94206.22;;;21.24;27.53
43217;BME280;60511;42.686;23.300;2023-02-04T08:12:15;94211.19;;;21.22;27.86
43217;BME280;60511;42.686;23.300;2023-02-04T08:14:15;94177.69;;;21.03;27.94
43217;BME280;60511;42.686;23.300;2023-02-04T08:16:15;94190.88;;;21.09;28.56
43217;BME280;60511;42.686;23.300;2023-02-04T08:18:16;94140.88;;;20.76;29.05
43217;BME280;60511;42.686;23.300;2023-02-04T08:20:16;94160.41;;;20.89;29.49
43217;BME280;60511;42.686;23.300;2023-02-04T08:22:17;94151.09;;;20.86;29.12
43217;BME280;60511;42.686;23.300;2023-02-04T08:24:18;94220.91;;;21.26;29.46
43217;BME280;60511;42.686;23.300;2023-02-04T08:26:18;94205.47;;;21.23;30.60
43217;BME280;60511;42.686;23.300;2023-02-04T08:28:18;94168.22;;;20.94;31.18
43217;BME280;60511;42.686;23.300;2023-02-04T08:30:19;94111.78;;;20.50;30.07
43217;BME280;60511;42.686;23.300;2023-02-04T08:32:19;94171.53;;;21.03;30.00
43217;BME280;60511;42.686;23.300;2023-02-04T08:34:20;94101.91;;;20.70;29.64
43217;BME280;60511;42.686;23.300;2023-02-04T08:36:20;94162.94;;;21.13;29.60
43217;BME280;60511;42.686;23.300;2023-02-04T08:38:20;94150.69;;;21.00;29.65
43217;BME280;60511;42.686;23.300;2023-02-04T08:40:21;94140.78;;;21.04;28.94
43217;BME280;60511;42.686;23.300;2023-02-04T08:42:21;94100.38;;;20.84;29.17
43217;BME280;60511;42.686;23.300;2023-02-04T08:44:22;94136.28;;;21.08;29.50
43217;BME280;60511;42.686;23.300;2023-02-04T08:46:22;94208.66;;;21.45;29.31
43217;BME280;60511;42.686;23.300;2023-02-04T08:48:23;94077.28;;;20.67;29.30
43217;BME280;60511;42.686;23.300;2023-02-04T08:50:23;94177.91;;;21.30;28.94
43217;BME280;60511;42.686;23.300;2023-02-04T08:52:23;94108.94;;;20.90;29.45
43217;BME280;60511;42.686;23.300;2023-02-04T08:56:25;94191.63;;;21.41;28.67
43217;BME280;60511;42.686;23.300;2023-02-04T08:58:25;94146.88;;;21.17;28.76
43217;BME280;60511;42.686;23.300;2023-02-04T09:00:26;94201.03;;;21.47;28.15
43217;BME280;60511;42.686;23.300;2023-02-04T09:02:26;94075.13;;;20.73;28.34
43217;BME280;60511;42.686;23.300;2023-02-04T09:04:27;94183.81;;;21.36;28.24
43217;BME280;60511;42.686;23.300;2023-02-04T09:06:28;94200.25;;;21.46;28.16
43217;BME280;60511;42.686;23.300;2023-02-04T09:08:28;94105.03;;;20.87;27.87
43217;BME280;60511;42.686;23.300;2023-02-04T09:10:29;94122.81;;;20.92;27.93
43217;BME280;60511;42.686;23.300;2023-02-04T09:12:29;93969.41;;;20.05;27.94
43217;BME280;60511;42.686;23.300;2023-02-04T09:14:29;94140.25;;;21.14;27.86
43217;BME280;60511;42.686;23.300;2023-02-04T09:16:30;94158.13;;;21.22;27.67
43217;BME280;60511;42.686;23.300;2023-02-04T09:18:31;94158.13;;;21.22;27.61
43217;BME280;60511;42.686;23.300;2023-02-04T09:20:31;94130.97;;;21.12;27.49
43217;BME280;60511;42.686;23.300;2023-02-04T09:22:35;93964.97;;;19.97;27.67
43217;BME280;60511;42.686;23.300;2023-02-04T09:24:36;94125.16;;;21.10;27.55
43217;BME280;60511;42.686;23.300;2023-02-04T09:26:37;94145.56;;;21.11;27.50
43217;BME280;60511;42.686;23.300;2023-02-04T09:28:37;94145.63;;;21.14;27.48
43217;BME280;60511;42.686;23.300;2023-02-04T09:30:39;94184.34;;;21.41;27.13
43217;BME280;60511;42.686;23.300;2023-02-04T09:32:39;94053.31;;;20.31;27.36
43217;BME280;60511;42.686;23.300;2023-02-04T09:34:40;93944.84;;;19.75;27.17
43217;BME280;60511;42.686;23.300;2023-02-04T09:36:41;94122.75;;;20.89;27.23
43217;BME280;60511;42.686;23.300;2023-02-04T09:38:41;94188.34;;;21.32;27.13
43217;BME280;60511;42.686;23.300;2023-02-04T09:40:46;93944.78;;;19.72;27.29
43217;BME280;60511;42.686;23.300;2023-02-04T09:42:49;94178.88;;;21.38;27.22
43217;BME280;60511;42.686;23.300;2023-02-04T09:44:51;94176.53;;;21.36;26.91
43217;BME280;60511;42.686;23.300;2023-02-04T09:46:54;94183.06;;;21.35;26.97
43217;BME280;60511;42.686;23.300;2023-02-04T09:48:55;94181.22;;;21.39;27.05
43217;BME280;60511;42.686;23.300;2023-02-04T09:51:04;94177.66;;;21.35;27.06
43217;BME280;60511;42.686;23.300;2023-02-04T09:53:06;94110.66;;;20.98;27.05
43217;BME280;60511;42.686;23.300;2023-02-04T09:55:14;94143.47;;;21.20;26.95
43217;BME280;60511;42.686;23.300;2023-02-04T09:57:19;94141.41;;;21.13;26.92
43217;BME280;60511;42.686;23.300;2023-02-04T09:59:22;94180.34;;;21.35;26.76
43217;BME280;60511;42.686;23.300;2023-02-04T10:01:23;94148.59;;;21.25;26.73
43217;BME280;60511;42.686;23.300;2023-02-04T10:03:23;94167.69;;;21.36;26.73
43217;BME280;60511;42.686;23.300;2023-02-04T10:05:27;93965.50;;;20.03;26.94
43217;BME280;60511;42.686;23.300;2023-02-04T10:07:28;94054.22;;;20.66;26.91
43217;BME280;60511;42.686;23.300;2023-02-04T10:09:31;94152.06;;;21.25;26.84
43217;BME280;60511;42.686;23.300;2023-02-04T10:11:35;94095.31;;;20.99;26.83
43217;BME280;60511;42.686;23.300;2023-02-04T10:13:40;93979.88;;;20.26;26.63
43217;BME280;60511;42.686;23.300;2023-02-04T10:15:41;94123.50;;;21.21;26.61
43217;BME280;60511;42.686;23.300;2023-02-04T10:17:42;94052.97;;;20.80;26.59
43217;BME280;60511;42.686;23.300;2023-02-04T10:19:42;94095.75;;;21.01;26.49
43217;BME280;60511;42.686;23.300;2023-02-04T10:21:44;94126.25;;;21.24;26.38
43217;BME280;60511;42.686;23.300;2023-02-04T10:23:47;94122.28;;;21.18;26.34
43217;BME280;60511;42.686;23.300;2023-02-04T10:25:48;94092.72;;;21.02;26.55
43217;BME280;60511;42.686;23.300;2023-02-04T10:29:57;94113.59;;;21.25;26.49
43217;BME280;60511;42.686;23.300;2023-02-04T10:31:58;94092.00;;;21.05;26.48
43217;BME280;60511;42.686;23.300;2023-02-04T10:34:21;94127.22;;;21.32;26.35
43217;BME280;60511;42.686;23.300;2023-02-04T10:36:22;94103.88;;;21.20;26.56
43217;BME280;60511;42.686;23.300;2023-02-04T10:38:23;94069.44;;;20.94;26.58
43217;BME280;60511;42.686;23.300;2023-02-04T10:40:34;94136.84;;;21.33;26.59